sensor_id;sensor_type;location;lat;lon;timestamp;temperature;humidity
67502;SHT30;54349;52.528;19.760;2023-12-20T02:54:09;24.65;43.47
67502;SHT30;54349;52.528;19.760;2023-12-20T02:56:38;24.66;43.39
67502;SHT30;54349;52.528;19.760;2023-12-20T02:59:06;24.67;43.33
67502;SHT30;54349;52.528;19.760;2023-12-20T03:01:46;24.68;43.27
67502;SHT30;54349;52.528;19.760;2023-12-20T03:04:14;24.69;43.19
67502;SHT30;54349;52.528;19.760;2023-12-20T03:06:43;24.70;43.15
67502;SHT30;54349;52.528;19.760;2023-12-20T03:09:11;24.70;43.10
67502;SHT30;54349;52.528;19.760;2023-12-20T03:11:39;24.71;43.03
67502;SHT30;54349;52.528;19.760;2023-12-20T03:14:07;24.71;42.95
67502;SHT30;54349;52.528;19.760;2023-12-20T03:16:35;24.72;42.91
67502;SHT30;54349;52.528;19.760;2023-12-20T03:19:03;24.72;42.83
67502;SHT30;54349;52.528;19.760;2023-12-20T03:21:32;24.71;42.83
67502;SHT30;54349;52.528;19.760;2023-12-20T03:24:00;24.71;42.80
67502;SHT30;54349;52.528;19.760;2023-12-20T10:54:10;24.41;43.38
67502;SHT30;54349;52.528;19.760;2023-12-20T13:53:21;24.69;39.94
67502;SHT30;54349;52.528;19.760;2023-12-20T13:55:49;24.69;39.94
67502;SHT30;54349;52.528;19.760;2023-12-20T13:58:17;24.70;39.92
67502;SHT30;54349;52.528;19.760;2023-12-20T14:00:45;24.68;39.91
67502;SHT30;54349;52.528;19.760;2023-12-20T14:03:14;24.68;39.88
67502;SHT30;54349;52.528;19.760;2023-12-20T14:05:43;24.68;39.85
67502;SHT30;54349;52.528;19.760;2023-12-20T14:08:11;24.68;39.81
67502;SHT30;54349;52.528;19.760;2023-12-20T14:10:39;24.67;39.74
67502;SHT30;54349;52.528;19.760;2023-12-20T14:13:07;24.67;39.72
67502;SHT30;54349;52.528;19.760;2023-12-20T14:15:36;24.66;39.67
67502;SHT30;54349;52.528;19.760;2023-12-20T14:18:05;24.66;39.63
67502;SHT30;54349;52.528;19.760;2023-12-20T14:20:35;24.66;39.59
67502;SHT30;54349;52.528;19.760;2023-12-20T14:23:04;24.65;39.54
67502;SHT30;54349;52.528;19.760;2023-12-20T14:25:32;24.64;39.52
67502;SHT30;54349;52.528;19.760;2023-12-20T14:57:12;24.58;39.31
67502;SHT30;54349;52.528;19.760;2023-12-20T15:53:18;24.50;39.19
67502;SHT30;54349;52.528;19.760;2023-12-20T15:55:47;24.51;39.18
67502;SHT30;54349;52.528;19.760;2023-12-20T15:58:15;24.50;39.20
67502;SHT30;54349;52.528;19.760;2023-12-20T16:00:43;24.51;39.17
67502;SHT30;54349;52.528;19.760;2023-12-20T16:03:11;24.52;39.14
67502;SHT30;54349;52.528;19.760;2023-12-20T16:05:52;24.51;39.12
67502;SHT30;54349;52.528;19.760;2023-12-20T16:08:26;24.53;39.12
67502;SHT30;54349;52.528;19.760;2023-12-20T16:10:54;24.53;39.11
67502;SHT30;54349;52.528;19.760;2023-12-20T16:13:23;24.53;39.10
67502;SHT30;54349;52.528;19.760;2023-12-20T16:15:51;24.53;39.06
67502;SHT30;54349;52.528;19.760;2023-12-20T16:18:20;24.54;39.05
67502;SHT30;54349;52.528;19.760;2023-12-20T16:20:48;24.54;39.03
67502;SHT30;54349;52.528;19.760;2023-12-20T16:23:16;24.54;39.01
67502;SHT30;54349;52.528;19.760;2023-12-20T16:25:45;24.55;38.99
67502;SHT30;54349;52.528;19.760;2023-12-20T16:40:18;24.50;38.96
67502;SHT30;54349;52.528;19.760;2023-12-20T17:53:19;24.72;38.72
67502;SHT30;54349;52.528;19.760;2023-12-20T17:55:47;24.73;38.73
67502;SHT30;54349;52.528;19.760;2023-12-20T17:58:15;24.75;38.69
67502;SHT30;54349;52.528;19.760;2023-12-20T18:00:47;24.77;38.62
67502;SHT30;54349;52.528;19.760;2023-12-20T18:03:15;24.77;38.62
67502;SHT30;54349;52.528;19.760;2023-12-20T18:05:43;24.78;38.59
67502;SHT30;54349;52.528;19.760;2023-12-20T18:08:11;24.79;38.54
67502;SHT30;54349;52.528;19.760;2023-12-20T18:10:39;24.81;38.52
67502;SHT30;54349;52.528;19.760;2023-12-20T18:13:08;24.82;38.44
67502;SHT30;54349;52.528;19.760;2023-12-20T18:15:36;24.83;38.42
67502;SHT30;54349;52.528;19.760;2023-12-20T18:18:04;24.83;38.38
67502;SHT30;54349;52.528;19.760;2023-12-20T18:20:35;24.84;38.32
67502;SHT30;54349;52.528;19.760;2023-12-20T18:23:04;24.85;38.29
67502;SHT30;54349;52.528;19.760;2023-12-20T18:25:32;24.86;38.24
67502;SHT30;54349;52.528;19.760;2023-12-20T18:28:00;24.85;38.23
67502;SHT30;54349;52.528;19.760;2023-12-20T18:30:28;24.86;38.19
67502;SHT30;54349;52.528;19.760;2023-12-20T18:32:56;24.85;38.12
67502;SHT30;54349;52.528;19.760;2023-12-20T18:35:24;24.86;38.13
67502;SHT30;54349;52.528;19.760;2023-12-20T18:37:52;24.87;38.10
67502;SHT30;54349;52.528;19.760;2023-12-20T18:40:20;24.87;38.07
67502;SHT30;54349;52.528;19.760;2023-12-20T18:42:48;24.86;38.03
67502;SHT30;54349;52.528;19.760;2023-12-20T18:45:16;24.86;38.00
67502;SHT30;54349;52.528;19.760;2023-12-20T18:47:44;24.86;37.93
67502;SHT30;54349;52.528;19.760;2023-12-20T18:50:13;24.86;37.91
67502;SHT30;54349;52.528;19.760;2023-12-20T18:52:41;24.85;37.91
67502;SHT30;54349;52.528;19.760;2023-12-20T18:55:09;24.84;37.85
67502;SHT30;54349;52.528;19.760;2023-12-20T18:57:37;24.84;37.85
67502;SHT30;54349;52.528;19.760;2023-12-20T19:00:06;24.84;37.83
67502;SHT30;54349;52.528;19.760;2023-12-20T19:02:37;24.83;37.80
67502;SHT30;54349;52.528;19.760;2023-12-20T19:05:05;24.83;37.77
67502;SHT30;54349;52.528;19.760;2023-12-20T19:07:33;24.82;37.76
67502;SHT30;54349;52.528;19.760;2023-12-20T19:10:01;24.83;37.76
67502;SHT30;54349;52.528;19.760;2023-12-20T19:12:30;24.82;37.73
67502;SHT30;54349;52.528;19.760;2023-12-20T19:14:58;24.82;37.75
67502;SHT30;54349;52.528;19.760;2023-12-20T19:17:26;24.81;37.73
67502;SHT30;54349;52.528;19.760;2023-12-20T19:19:55;24.81;37.73
67502;SHT30;54349;52.528;19.760;2023-12-20T19:22:23;24.81;37.71
67502;SHT30;54349;52.528;19.760;2023-12-20T19:24:54;24.80;37.74
67502;SHT30;54349;52.528;19.760;2023-12-20T19:27:23;24.80;37.74
67502;SHT30;54349;52.528;19.760;2023-12-20T19:29:51;24.80;37.74
67502;SHT30;54349;52.528;19.760;2023-12-20T19:32:25;24.79;37.72
67502;SHT30;54349;52.528;19.760;2023-12-20T19:34:55;24.79;37.72
67502;SHT30;54349;52.528;19.760;2023-12-20T19:37:24;24.79;37.71
67502;SHT30;54349;52.528;19.760;2023-12-20T19:39:52;24.79;37.67
67502;SHT30;54349;52.528;19.760;2023-12-20T19:42:21;24.78;37.64
67502;SHT30;54349;52.528;19.760;2023-12-20T19:44:49;24.78;37.63
67502;SHT30;54349;52.528;19.760;2023-12-20T19:47:17;24.77;37.60
67502;SHT30;54349;52.528;19.760;2023-12-20T19:49:46;24.78;37.63
67502;SHT30;54349;52.528;19.760;2023-12-20T21:54:18;24.55;38.77
67502;SHT30;54349;52.528;19.760;2023-12-20T21:56:57;24.57;38.80
67502;SHT30;54349;52.528;19.760;2023-12-20T21:59:26;24.58;38.82
67502;SHT30;54349;52.528;19.760;2023-12-20T22:01:54;24.59;38.80
67502;SHT30;54349;52.528;19.760;2023-12-20T22:04:22;24.61;38.83
67502;SHT30;54349;52.528;19.760;2023-12-20T22:06:51;24.63;38.89
67502;SHT30;54349;52.528;19.760;2023-12-20T22:09:19;24.63;38.91
67502;SHT30;54349;52.528;19.760;2023-12-20T22:11:47;24.64;38.93
67502;SHT30;54349;52.528;19.760;2023-12-20T22:14:15;24.66;38.98
67502;SHT30;54349;52.528;19.760;2023-12-20T22:16:43;24.67;39.01
67502;SHT30;54349;52.528;19.760;2023-12-20T22:29:25;24.69;39.11
67502;SHT30;54349;52.528;19.760;2023-12-20T22:31:56;24.71;39.06
67502;SHT30;54349;52.528;19.760;2023-12-20T22:34:24;24.73;39.08
67502;SHT30;54349;52.528;19.760;2023-12-20T22:36:53;24.74;39.07
67502;SHT30;54349;52.528;19.760;2023-12-20T22:39:21;24.76;39.06
67502;SHT30;54349;52.528;19.760;2023-12-20T22:41:49;24.77;39.03
67502;SHT30;54349;52.528;19.760;2023-12-20T22:44:20;24.77;39.06
67502;SHT30;54349;52.528;19.760;2023-12-20T22:46:48;24.79;39.07
67502;SHT30;54349;52.528;19.760;2023-12-20T22:49:16;24.80;39.02
67502;SHT30;54349;52.528;19.760;2023-12-20T22:51:44;24.81;39.03
67502;SHT30;54349;52.528;19.760;2023-12-20T22:54:12;24.82;39.02
67502;SHT30;54349;52.528;19.760;2023-12-20T22:56:40;24.83;39.04
67502;SHT30;54349;52.528;19.760;2023-12-20T22:59:08;24.83;39.06
67502;SHT30;54349;52.528;19.760;2023-12-20T23:01:40;24.84;39.06
67502;SHT30;54349;52.528;19.760;2023-12-20T23:04:08;24.86;39.04
67502;SHT30;54349;52.528;19.760;2023-12-20T23:06:36;24.86;39.05
67502;SHT30;54349;52.528;19.760;2023-12-20T23:09:04;24.86;39.01
67502;SHT30;54349;52.528;19.760;2023-12-20T23:11:32;24.86;39.06
67502;SHT30;54349;52.528;19.760;2023-12-20T23:14:00;24.87;39.08
67502;SHT30;54349;52.528;19.760;2023-12-20T23:16:40;24.88;39.07
67502;SHT30;54349;52.528;19.760;2023-12-20T23:19:08;24.89;39.10
67502;SHT30;54349;52.528;19.760;2023-12-20T23:21:37;24.90;39.12
67502;SHT30;54349;52.528;19.760;2023-12-20T23:24:05;24.91;39.13
67502;SHT30;54349;52.528;19.760;2023-12-20T23:26:33;24.92;39.15
67502;SHT30;54349;52.528;19.760;2023-12-20T23:29:01;24.92;39.13
67502;SHT30;54349;52.528;19.760;2023-12-20T23:31:31;24.93;39.10
67502;SHT30;54349;52.528;19.760;2023-12-20T23:33:59;24.94;39.08
67502;SHT30;54349;52.528;19.760;2023-12-20T23:36:28;24.93;39.09
67502;SHT30;54349;52.528;19.760;2023-12-20T23:38:56;24.95;39.09
67502;SHT30;54349;52.528;19.760;2023-12-20T23:41:25;24.96;39.13
67502;SHT30;54349;52.528;19.760;2023-12-20T23:43:55;24.97;39.16
67502;SHT30;54349;52.528;19.760;2023-12-20T23:46:24;24.98;39.18
67502;SHT30;54349;52.528;19.760;2023-12-20T23:48:52;24.98;39.14
67502;SHT30;54349;52.528;19.760;2023-12-20T23:51:20;25.00;39.13
67502;SHT30;54349;52.528;19.760;2023-12-20T23:53:48;25.00;39.11
67502;SHT30;54349;52.528;19.760;2023-12-20T23:56:18;25.01;39.10
67502;SHT30;54349;52.528;19.760;2023-12-20T23:59:02;25.01;39.09
